Time;durP1;ratioP1;P1;durP2;ratioP2;P2;SDS_P1;SDS_P2;PMS_P1;PMS_P2;Temp;Humidity;BMP_temperature;BMP_pressure;BME280_temperature;BME280_humidity;BME280_pressure;Samples;Min_cycle;Max_cycle;Signal;HPM_P1;HPM_P2
2023/10/08 00:03:06;;;;;;;11.38;3.45;;;;;;;;;;5032713;28;20109;-73
2023/10/08 00:05:36;;;;;;;8.30;3.25;;;;;;;;;;5043676;28;20108;-73
2023/10/08 00:08:01;;;;;;;;;;;;;;;;;;5037916;28;20013;-73
2023/10/08 00:10:26;;;;;;;12.60;3.58;;;;;;;;;;5034898;28;19915;-73
2023/10/08 00:12:51;;;;;;;11.30;4.17;;;;;;;;;;5030253;28;20148;-73
2023/10/08 00:15:17;;;;;;;8.47;2.93;;;;;;;;;;5042401;28;20781;-73
2023/10/08 00:17:45;;;;;;;11.10;4.10;;;;;;;;;;5041058;28;20267;-73
2023/10/08 00:20:15;;;;;;;10.30;4.95;;;;;;;;;;5035779;28;20400;-73
2023/10/08 00:22:41;;;;;;;;;;;;;;;;;;5028809;28;20029;-73
2023/10/08 00:25:11;;;;;;;8.93;3.55;;;;;;;;;;5037150;28;20417;-73
2023/10/08 00:27:38;;;;;;;;;;;;;;;;;;5032475;28;20036;-73
2023/10/08 00:30:13;;;;;;;9.93;4.05;;;;;;;;;;5031734;28;19909;-73
2023/10/08 00:32:38;;;;;;;9.60;3.42;;;;;;;;;;5043743;28;20024;-73
2023/10/08 00:35:13;;;;;;;8.80;3.40;;;;;;;;;;5046143;28;20025;-73
2023/10/08 00:37:39;;;;;;;13.20;3.65;;;;;;;;;;5031343;28;20271;-73
2023/10/08 00:40:11;;;;;;;12.73;3.47;;;;;;;;;;5030193;28;20021;-73
2023/10/08 00:42:36;;;;;;;10.77;3.53;;;;;;;;;;5033099;28;20035;-73
2023/10/08 00:45:04;;;;;;;7.67;3.90;;;;;;;;;;5036916;28;20029;-73
2023/10/08 00:47:34;;;;;;;9.45;3.05;;;;;;;;;;5047045;28;20029;-73
2023/10/08 00:50:07;;;;;;;10.25;3.28;;;;;;;;;;5037821;28;20017;-73
2023/10/08 00:52:40;;;;;;;9.98;3.78;;;;;;;;;;5036404;28;20083;-73
2023/10/08 00:57:34;;;;;;;8.73;3.50;;;;;;;;;;5038096;28;20033;-73
2023/10/08 00:59:59;;;;;;;9.55;3.75;;;;;;;;;;5040963;28;20034;-73
2023/10/08 01:02:42;;;;;;;11.23;3.20;;;;;;;;;;5034451;28;20075;-73
2023/10/08 01:05:09;;;;;;;11.85;3.67;;;;;;;;;;5038723;28;20767;-73
2023/10/08 01:07:35;;;;;;;7.20;2.97;;;;;;;;;;5038485;28;20021;-73
2023/10/08 01:10:05;;;;;;;8.27;3.38;;;;;;;;;;5029490;28;20063;-72
2023/10/08 01:12:33;;;;;;;7.93;3.33;;;;;;;;;;5029148;28;20025;-73
2023/10/08 01:15:17;;;;;;;10.18;3.40;;;;;;;;;;5034431;28;20365;-73
2023/10/08 01:17:51;;;;;;;10.55;3.25;;;;;;;;;;5034791;28;20021;-73
2023/10/08 01:20:32;;;;;;;7.90;3.40;;;;;;;;;;5032143;28;20588;-73
2023/10/08 01:22:57;;;;;;;13.35;4.35;;;;;;;;;;5033270;28;20108;-73
2023/10/08 01:25:24;;;;;;;8.38;3.60;;;;;;;;;;5036484;28;20528;-73
2023/10/08 01:27:55;;;;;;;13.82;4.13;;;;;;;;;;5029220;28;20141;-73
2023/10/08 01:30:20;;;;;;;10.00;3.45;;;;;;;;;;5033557;28;20024;-72
2023/10/08 01:32:45;;;;;;;6.67;3.10;;;;;;;;;;5036271;28;20092;-73
2023/10/08 01:35:22;;;;;;;11.27;3.67;;;;;;;;;;5039408;28;20663;-73
2023/10/08 01:37:49;;;;;;;10.65;4.07;;;;;;;;;;5029983;28;20300;-73
2023/10/08 01:40:14;;;;;;;8.32;3.55;;;;;;;;;;5028125;28;20029;-73
2023/10/08 01:42:39;;;;;;;13.17;4.83;;;;;;;;;;5032189;28;20074;-72
2023/10/08 01:45:07;;;;;;;11.50;3.03;;;;;;;;;;5040522;28;20701;-73
2023/10/08 01:47:32;;;;;;;7.88;3.53;;;;;;;;;;5044926;28;20335;-73
2023/10/08 01:50:05;;;;;;;12.90;4.27;;;;;;;;;;5036085;28;20116;-73
2023/10/08 01:52:30;;;;;;;11.18;3.67;;;;;;;;;;5032372;28;20278;-73
2023/10/08 01:54:56;;;;;;;10.65;3.53;;;;;;;;;;5028766;28;20029;-73
2023/10/08 01:57:21;;;;;;;10.45;3.50;;;;;;;;;;5032917;28;20032;-73
2023/10/08 01:59:46;;;;;;;13.15;3.83;;;;;;;;;;5033967;28;20094;-73
2023/10/08 02:02:17;;;;;;;13.07;4.67;;;;;;;;;;5027067;28;20060;-73
2023/10/08 02:04:43;;;;;;;6.97;3.25;;;;;;;;;;5033730;28;20283;-73
2023/10/08 02:07:12;;;;;;;9.00;3.47;;;;;;;;;;5037120;28;20022;-73
2023/10/08 02:09:37;;;;;;;14.50;4.53;;;;;;;;;;5025842;28;20021;-73
2023/10/08 02:12:03;;;;;;;9.70;3.63;;;;;;;;;;5032921;28;20147;-73
2023/10/08 02:14:31;;;;;;;10.85;4.25;;;;;;;;;;5031034;28;20252;-73
2023/10/08 02:16:56;;;;;;;10.02;4.45;;;;;;;;;;5041452;28;20384;-73
2023/10/08 02:19:26;;;;;;;7.00;3.00;;;;;;;;;;5034648;28;20028;-73
2023/10/08 02:21:54;;;;;;;7.28;3.42;;;;;;;;;;5027758;28;20451;-73
2023/10/08 02:24:21;;;;;;;11.43;4.45;;;;;;;;;;5030470;28;20538;-73
2023/10/08 02:26:46;;;;;;;11.48;3.97;;;;;;;;;;5028138;28;20021;-73
2023/10/08 02:29:11;;;;;;;8.88;3.80;;;;;;;;;;5035890;28;20276;-73
2023/10/08 02:31:40;;;;;;;9.45;3.33;;;;;;;;;;5037424;28;20017;-73
2023/10/08 02:34:08;;;;;;;11.45;3.30;;;;;;;;;;5040823;28;20026;-73
2023/10/08 02:36:36;;;;;;;10.93;3.30;;;;;;;;;;5029240;28;20531;-73
2023/10/08 02:39:05;;;;;;;10.90;3.63;;;;;;;;;;5030468;28;20017;-73
2023/10/08 02:41:31;;;;;;;12.10;3.40;;;;;;;;;;5034193;28;20388;-73
2023/10/08 02:43:59;;;;;;;8.93;3.38;;;;;;;;;;5039954;28;20029;-73
2023/10/08 02:46:26;;;;;;;6.93;2.95;;;;;;;;;;5035015;28;20076;-73
2023/10/08 02:48:52;;;;;;;10.23;3.97;;;;;;;;;;5034986;28;20022;-73
2023/10/08 02:51:20;;;;;;;13.10;4.32;;;;;;;;;;5028407;28;20580;-73
2023/10/08 02:53:46;;;;;;;10.80;4.72;;;;;;;;;;5038436;28;20017;-73
2023/10/08 02:56:14;;;;;;;12.27;3.30;;;;;;;;;;5028497;28;20034;-73
2023/10/08 02:58:40;;;;;;;9.88;3.33;;;;;;;;;;5025706;28;20060;-73
2023/10/08 03:01:05;;;;;;;8.70;3.20;;;;;;;;;;5023419;28;20064;-73
2023/10/08 03:03:32;;;;;;;11.18;4.30;;;;;;;;;;5026752;28;20045;-73
2023/10/08 03:05:57;;;;;;;9.98;3.13;;;;;;;;;;5027262;28;20025;-73
2023/10/08 03:08:23;;;;;;;7.85;3.17;;;;;;;;;;5042773;28;20092;-73
2023/10/08 03:11:02;;;;;;;16.48;3.55;;;;;;;;;;5033722;28;20052;-73
2023/10/08 03:13:27;;;;;;;11.10;3.67;;;;;;;;;;5029549;28;20023;-73
2023/10/08 03:16:08;;;;;;;8.25;2.97;;;;;;;;;;5035523;28;20037;-73
2023/10/08 03:18:36;;;;;;;11.70;4.18;;;;;;;;;;5029295;28;20013;-73
2023/10/08 03:21:06;;;;;;;10.45;3.70;;;;;;;;;;5027508;28;20036;-73
2023/10/08 03:23:34;;;;;;;7.60;3.60;;;;;;;;;;5034499;28;20452;-73
2023/10/08 03:26:02;;;;;;;7.00;3.25;;;;;;;;;;5039006;28;20055;-73
2023/10/08 03:28:28;;;;;;;6.70;3.47;;;;;;;;;;5029033;28;20465;-73
2023/10/08 03:31:02;;;;;;;17.45;4.20;;;;;;;;;;5029729;28;20034;-73
2023/10/08 03:33:28;;;;;;;10.43;3.58;;;;;;;;;;5027137;28;20028;-73
2023/10/08 03:35:55;;;;;;;10.20;3.47;;;;;;;;;;5033457;28;20041;-73
2023/10/08 03:38:44;;;;;;;13.00;3.88;;;;;;;;;;5036829;28;20036;-73
2023/10/08 03:41:15;;;;;;;12.02;3.95;;;;;;;;;;5038151;28;20026;-73
2023/10/08 03:43:52;;;;;;;9.88;3.53;;;;;;;;;;5036131;28;20019;-73
2023/10/08 03:46:17;;;;;;;11.43;3.75;;;;;;;;;;5031504;28;20057;-73
2023/10/08 03:48:44;;;;;;;15.18;4.05;;;;;;;;;;5038737;28;20051;-73
2023/10/08 03:51:11;;;;;;;8.00;3.45;;;;;;;;;;5033570;28;20472;-73
2023/10/08 03:53:42;;;;;;;9.50;3.60;;;;;;;;;;5037832;28;20022;-73
2023/10/08 03:56:08;;;;;;;10.60;3.67;;;;;;;;;;5034777;28;20369;-73
2023/10/08 03:58:40;;;;;;;9.88;3.17;;;;;;;;;;5038318;28;20021;-73
2023/10/08 04:01:09;;;;;;;9.93;3.42;;;;;;;;;;5025527;28;20373;-73
2023/10/08 04:03:57;;;;;;;7.03;3.25;;;;;;;;;;5038540;28;20017;-73
2023/10/08 04:06:29;;;;;;;10.73;3.30;;;;;;;;;;5032902;28;20030;-73
2023/10/08 04:09:10;;;;;;;8.15;3.25;;;;;;;;;;5033997;28;20488;-73
2023/10/08 04:11:41;;;;;;;9.10;3.92;;;;;;;;;;5030345;28;20025;-73
2023/10/08 04:14:07;;;;;;;18.35;3.88;;;;;;;;;;5035129;28;20025;-73
2023/10/08 04:16:36;;;;;;;7.37;3.40;;;;;;;;;;5040188;28;20021;-73
2023/10/08 04:19:03;;;;;;;17.23;3.85;;;;;;;;;;5037289;28;20822;-73
2023/10/08 04:21:28;;;;;;;15.95;4.07;;;;;;;;;;5034104;28;20025;-73
2023/10/08 04:23:53;;;;;;;13.27;3.83;;;;;;;;;;5032089;28;20033;-73
2023/10/08 04:26:23;;;;;;;12.40;3.70;;;;;;;;;;5032770;28;20034;-73
2023/10/08 04:28:57;;;;;;;8.85;3.85;;;;;;;;;;5037414;28;20251;-73
2023/10/08 04:31:27;;;;;;;7.75;3.25;;;;;;;;;;5032290;28;20021;-73
2023/10/08 04:33:52;;;;;;;;;;;;;;;;;;5035572;28;20033;-73
2023/10/08 04:36:19;;;;;;;11.37;3.23;;;;;;;;;;5036685;28;20798;-73
2023/10/08 04:38:47;;;;;;;16.40;3.80;;;;;;;;;;5035599;28;20021;-73
2023/10/08 04:41:13;;;;;;;14.68;3.80;;;;;;;;;;5039961;28;20110;-73
2023/10/08 04:43:40;;;;;;;9.45;3.70;;;;;;;;;;5030229;28;20018;-73
2023/10/08 04:46:18;;;;;;;11.00;3.88;;;;;;;;;;5038042;28;20040;-73
2023/10/08 04:48:43;;;;;;;14.95;4.25;;;;;;;;;;5035787;28;20005;-73
2023/10/08 04:51:12;;;;;;;9.07;3.53;;;;;;;;;;5036143;28;20480;-73
2023/10/08 04:53:40;;;;;;;10.23;3.33;;;;;;;;;;5036091;28;20252;-73
2023/10/08 04:56:22;;;;;;;12.15;3.80;;;;;;;;;;5035272;28;20035;-73
2023/10/08 04:58:48;;;;;;;11.30;4.20;;;;;;;;;;5036417;28;20480;-73
2023/10/08 05:07:01;;;;;;;9.35;3.55;;;;;;;;;;5020576;28;20116;-73
2023/10/08 05:17:21;;;;;;;12.18;3.35;;;;;;;;;;5022130;28;20541;-73
2023/10/08 05:20:30;;;;;;;8.25;3.63;;;;;;;;;;5017486;28;20017;-73
2023/10/08 05:30:16;;;;;;;10.98;3.67;;;;;;;;;;5024393;28;20025;-73
2023/10/08 05:35:48;;;;;;;14.20;5.07;;;;;;;;;;5032629;28;20021;-73
2023/10/08 05:38:37;;;;;;;14.57;4.05;;;;;;;;;;5034156;28;20025;-73
2023/10/08 06:13:02;;;;;;;10.75;4.03;;;;;;;;;;5020167;28;20040;-73
2023/10/08 06:15:44;;;;;;;11.70;3.85;;;;;;;;;;5020186;28;20040;-73
2023/10/08 06:18:09;;;;;;;13.27;3.97;;;;;;;;;;5029564;28;20036;-73
2023/10/08 06:20:36;;;;;;;12.75;4.18;;;;;;;;;;5026940;28;20029;-73
2023/10/08 06:23:06;;;;;;;9.98;4.28;;;;;;;;;;5026371;28;20387;-73
2023/10/08 06:25:32;;;;;;;11.48;4.47;;;;;;;;;;5029996;28;20029;-73
2023/10/08 06:28:02;;;;;;;14.45;4.15;;;;;;;;;;5036044;28;20361;-73
2023/10/08 06:30:29;;;;;;;9.40;3.63;;;;;;;;;;5034308;28;20051;-73
2023/10/08 06:32:54;;;;;;;13.45;4.40;;;;;;;;;;5031101;28;20018;-73
2023/10/08 06:35:24;;;;;;;8.77;3.85;;;;;;;;;;5035389;28;20067;-73
2023/10/08 06:37:54;;;;;;;16.60;4.85;;;;;;;;;;5031110;28;20021;-73
2023/10/08 06:43:11;;;;;;;10.85;4.05;;;;;;;;;;5030436;28;20119;-73
2023/10/08 06:45:37;;;;;;;11.43;4.78;;;;;;;;;;5037654;28;20128;-73
2023/10/08 06:48:06;;;;;;;10.02;4.05;;;;;;;;;;5038643;28;20468;-73
2023/10/08 06:50:35;;;;;;;18.45;4.68;;;;;;;;;;5034614;28;20381;-73
2023/10/08 06:53:06;;;;;;;10.10;4.43;;;;;;;;;;5032678;28;20047;-73
2023/10/08 06:55:31;;;;;;;13.30;4.38;;;;;;;;;;5037943;28;20033;-73
2023/10/08 06:57:56;;;;;;;16.10;5.22;;;;;;;;;;5026244;28;20075;-73
2023/10/08 07:00:37;;;;;;;13.03;4.70;;;;;;;;;;5029237;28;20100;-73
2023/10/08 07:03:02;;;;;;;12.63;4.32;;;;;;;;;;5023280;28;20287;-73
2023/10/08 07:05:28;;;;;;;11.63;4.13;;;;;;;;;;5029571;28;20025;-73
2023/10/08 07:07:54;;;;;;;11.20;4.30;;;;;;;;;;5032137;28;20109;-73
2023/10/08 07:10:19;;;;;;;13.53;4.83;;;;;;;;;;5035570;28;20097;-73
2023/10/08 07:12:46;;;;;;;18.35;4.20;;;;;;;;;;5032792;28;20280;-73
2023/10/08 07:15:13;;;;;;;10.05;4.28;;;;;;;;;;5026756;28;20022;-73
2023/10/08 07:17:40;;;;;;;14.45;4.15;;;;;;;;;;5030423;28;20388;-73
2023/10/08 07:20:13;;;;;;;13.45;4.53;;;;;;;;;;5034100;28;20232;-73
2023/10/08 07:22:39;;;;;;;20.15;4.97;;;;;;;;;;5028738;28;20033;-73
2023/10/08 07:25:08;;;;;;;15.07;4.70;;;;;;;;;;5033578;28;20021;-73
2023/10/08 07:27:37;;;;;;;9.82;4.18;;;;;;;;;;5028457;28;20161;-73
2023/10/08 07:30:10;;;;;;;11.15;5.07;;;;;;;;;;5033652;28;20014;-73
2023/10/08 07:32:35;;;;;;;12.27;4.70;;;;;;;;;;5030535;28;20028;-73
2023/10/08 07:37:44;;;;;;;12.32;4.18;;;;;;;;;;5028349;28;20279;-73
2023/10/08 07:40:12;;;;;;;13.60;4.82;;;;;;;;;;5034419;28;20026;-73
2023/10/08 07:42:37;;;;;;;11.05;3.78;;;;;;;;;;5031771;28;20032;-73
2023/10/08 07:45:04;;;;;;;12.27;4.33;;;;;;;;;;5030068;28;20037;-73
2023/10/08 07:47:29;;;;;;;10.63;4.88;;;;;;;;;;5042923;28;20251;-73
2023/10/08 07:49:55;;;;;;;11.98;4.82;;;;;;;;;;5032849;28;20029;-73
2023/10/08 07:52:20;;;;;;;10.90;3.93;;;;;;;;;;5037343;28;20096;-73
2023/10/08 07:54:47;;;;;;;9.68;4.30;;;;;;;;;;5032884;28;20765;-73
2023/10/08 07:57:16;;;;;;;14.68;4.65;;;;;;;;;;5033081;28;20087;-73
2023/10/08 07:59:42;;;;;;;13.70;4.93;;;;;;;;;;5036066;28;20029;-73
2023/10/08 08:02:09;;;;;;;12.13;4.20;;;;;;;;;;5040325;28;20453;-73
2023/10/08 08:04:35;;;;;;;13.52;3.85;;;;;;;;;;5031429;28;20013;-73
2023/10/08 08:07:04;;;;;;;15.50;4.63;;;;;;;;;;5029235;28;20664;-73
2023/10/08 08:09:29;;;;;;;11.60;4.38;;;;;;;;;;5040298;28;20087;-73
2023/10/08 08:11:57;;;;;;;14.57;4.20;;;;;;;;;;5033561;28;20021;-73
2023/10/08 08:14:24;;;;;;;17.80;5.35;;;;;;;;;;5030664;28;20448;-73
2023/10/08 08:16:50;;;;;;;10.75;4.43;;;;;;;;;;5034412;28;20088;-73
2023/10/08 08:19:16;;;;;;;10.82;4.13;;;;;;;;;;5029985;28;20086;-73
2023/10/08 08:21:45;;;;;;;16.42;5.15;;;;;;;;;;5020540;28;20545;-73
2023/10/08 08:24:12;;;;;;;13.05;4.80;;;;;;;;;;5022941;28;20431;-73
2023/10/08 08:26:40;;;;;;;16.45;5.05;;;;;;;;;;5025020;28;20028;-73
2023/10/08 08:29:08;;;;;;;14.13;4.72;;;;;;;;;;5028985;28;20021;-73
2023/10/08 08:31:37;;;;;;;15.13;4.78;;;;;;;;;;5033500;28;20025;-73
2023/10/08 08:34:08;;;;;;;13.82;4.65;;;;;;;;;;5026067;28;20033;-73
2023/10/08 08:36:33;;;;;;;10.02;4.38;;;;;;;;;;5014882;28;20028;-73
2023/10/08 08:38:58;;;;;;;8.85;4.40;;;;;;;;;;5030921;28;20021;-73
2023/10/08 08:41:24;;;;;;;19.03;5.33;;;;;;;;;;5028277;28;20029;-73
2023/10/08 08:43:59;;;;;;;12.45;4.82;;;;;;;;;;5027307;28;20037;-73
2023/10/08 08:46:30;;;;;;;10.90;4.28;;;;;;;;;;5026832;28;20392;-73
2023/10/08 08:48:55;;;;;;;13.05;5.10;;;;;;;;;;5030671;28;20113;-73
2023/10/08 08:51:22;;;;;;;18.55;5.03;;;;;;;;;;5027636;28;20150;-73
2023/10/08 08:53:47;;;;;;;18.45;6.15;;;;;;;;;;5024861;28;20098;-73
2023/10/08 08:56:13;;;;;;;16.38;5.35;;;;;;;;;;5023628;28;20068;-73
2023/10/08 08:58:38;;;;;;;20.10;5.30;;;;;;;;;;5018795;28;20109;-73
2023/10/08 09:01:06;;;;;;;18.50;4.95;;;;;;;;;;5027536;28;20126;-73
2023/10/08 09:03:31;;;;;;;17.85;5.72;;;;;;;;;;5028203;28;20022;-73
2023/10/08 09:05:57;;;;;;;20.88;5.63;;;;;;;;;;5027847;28;20039;-73
2023/10/08 09:08:24;;;;;;;15.65;5.38;;;;;;;;;;5029303;28;20029;-73
2023/10/08 09:10:52;;;;;;;21.33;7.28;;;;;;;;;;5029283;28;20006;-73
2023/10/08 09:13:20;;;;;;;17.08;5.15;;;;;;;;;;5025722;28;20021;-73
2023/10/08 09:15:46;;;;;;;22.00;6.20;;;;;;;;;;5032777;28;20025;-73
2023/10/08 09:18:13;;;;;;;18.92;5.28;;;;;;;;;;5028999;28;20444;-73
2023/10/08 09:20:43;;;;;;;22.35;6.28;;;;;;;;;;5022352;28;20033;-73
2023/10/08 09:23:12;;;;;;;19.58;6.35;;;;;;;;;;5028336;28;20029;-73
2023/10/08 09:25:39;;;;;;;20.30;5.38;;;;;;;;;;5029157;28;20032;-73
2023/10/08 09:28:07;;;;;;;25.65;6.47;;;;;;;;;;5027964;28;20563;-73
2023/10/08 09:30:37;;;;;;;24.77;6.38;;;;;;;;;;5024018;28;20543;-73
2023/10/08 09:33:04;;;;;;;;;;;;;;;;;;5023340;28;20029;-73
2023/10/08 09:35:29;;;;;;;28.83;7.15;;;;;;;;;;5024727;28;19917;-73
2023/10/08 09:37:55;;;;;;;30.20;7.38;;;;;;;;;;5028524;28;20033;-73
2023/10/08 09:40:21;;;;;;;19.15;6.55;;;;;;;;;;5025959;28;20057;-73
2023/10/08 09:42:47;;;;;;;27.38;7.15;;;;;;;;;;5024584;28;20017;-73
2023/10/08 09:45:13;;;;;;;29.38;5.82;;;;;;;;;;5023681;28;20026;-73
2023/10/08 09:47:42;;;;;;;29.20;7.45;;;;;;;;;;5033356;28;20176;-73
2023/10/08 09:50:11;;;;;;;27.42;6.82;;;;;;;;;;5027237;28;20036;-73
2023/10/08 09:52:39;;;;;;;32.97;6.95;;;;;;;;;;5027985;28;20029;-73
2023/10/08 09:55:10;;;;;;;25.95;7.00;;;;;;;;;;5025949;28;20029;-73
2023/10/08 09:57:36;;;;;;;20.15;6.05;;;;;;;;;;5024479;28;20025;-73
2023/10/08 10:00:01;;;;;;;22.08;6.35;;;;;;;;;;5031339;28;20083;-73
2023/10/08 10:02:27;;;;;;;24.80;7.07;;;;;;;;;;5022041;28;20048;-73
2023/10/08 10:04:54;;;;;;;27.55;7.60;;;;;;;;;;5027694;28;20280;-73
2023/10/08 10:07:20;;;;;;;20.83;6.05;;;;;;;;;;5021332;28;20033;-73
2023/10/08 10:09:49;;;;;;;22.02;5.90;;;;;;;;;;5024078;28;20463;-73
2023/10/08 10:12:25;;;;;;;24.15;7.05;;;;;;;;;;5019243;28;20039;-73
2023/10/08 10:14:53;;;;;;;18.55;6.15;;;;;;;;;;5028515;28;20021;-73
2023/10/08 10:17:25;;;;;;;25.58;6.88;;;;;;;;;;5027468;28;20096;-73
2023/10/08 10:19:53;;;;;;;20.38;6.45;;;;;;;;;;5025298;28;20025;-73
2023/10/08 10:22:28;;;;;;;18.15;7.38;;;;;;;;;;5024144;28;20056;-73
2023/10/08 10:24:53;;;;;;;21.60;6.63;;;;;;;;;;5021542;28;20027;-73
2023/10/08 10:27:19;;;;;;;27.73;7.57;;;;;;;;;;5027701;28;20107;-73
2023/10/08 10:29:45;;;;;;;20.25;6.68;;;;;;;;;;5029362;28;20025;-73
2023/10/08 10:32:14;;;;;;;28.73;8.82;;;;;;;;;;5032430;28;20045;-73
2023/10/08 10:34:39;;;;;;;22.70;7.07;;;;;;;;;;5027790;28;20018;-73
2023/10/08 10:37:21;;;;;;;21.07;7.13;;;;;;;;;;5029570;28;20362;-73
2023/10/08 10:39:54;;;;;;;30.88;8.07;;;;;;;;;;5026878;28;20343;-73
2023/10/08 10:42:23;;;;;;;17.35;6.32;;;;;;;;;;5028777;28;20644;-73
2023/10/08 10:44:49;;;;;;;29.27;8.50;;;;;;;;;;5031510;28;20511;-73
2023/10/08 10:52:31;;;;;;;21.05;7.40;;;;;;;;;;5025096;28;20017;-73
2023/10/08 10:55:00;;;;;;;20.88;6.53;;;;;;;;;;5027927;28;20171;-73
2023/10/08 10:57:34;;;;;;;26.33;7.78;;;;;;;;;;5027144;28;20071;-73
2023/10/08 11:00:18;;;;;;;34.42;8.93;;;;;;;;;;5027934;28;20029;-73
2023/10/08 11:02:48;;;;;;;29.48;8.07;;;;;;;;;;5026907;28;20018;-73
2023/10/08 11:05:19;;;;;;;22.23;7.07;;;;;;;;;;5028470;28;20029;-73
2023/10/08 11:07:44;;;;;;;32.83;7.28;;;;;;;;;;5023555;28;20018;-73
2023/10/08 11:10:15;;;;;;;25.75;7.70;;;;;;;;;;5024964;28;20104;-73
2023/10/08 11:12:46;;;;;;;23.05;7.38;;;;;;;;;;5022962;28;20482;-73
2023/10/08 11:15:15;;;;;;;23.60;7.22;;;;;;;;;;5024751;28;20035;-73
2023/10/08 11:17:41;;;;;;;25.10;7.90;;;;;;;;;;5025459;28;20472;-73
2023/10/08 11:20:23;;;;;;;22.77;7.18;;;;;;;;;;5028481;28;20032;-73
2023/10/08 11:22:48;;;;;;;33.83;7.65;;;;;;;;;;5029837;28;20025;-73
2023/10/08 11:25:30;;;;;;;18.25;6.03;;;;;;;;;;5028756;28;20416;-73
2023/10/08 11:28:01;;;;;;;24.65;7.22;;;;;;;;;;5032616;28;20062;-73
2023/10/08 11:30:30;;;;;;;25.40;7.22;;;;;;;;;;5031426;28;20013;-73
2023/10/08 11:32:56;;;;;;;19.20;7.13;;;;;;;;;;5031705;28;20064;-73
2023/10/08 11:35:22;;;;;;;21.58;7.60;;;;;;;;;;5031221;28;20029;-73
2023/10/08 11:37:50;;;;;;;32.28;8.23;;;;;;;;;;5030668;28;20071;-73
2023/10/08 11:40:28;;;;;;;25.58;9.00;;;;;;;;;;5029578;28;20504;-73
2023/10/08 11:42:56;;;;;;;29.23;8.40;;;;;;;;;;5030226;28;20105;-73
2023/10/08 11:45:25;;;;;;;25.13;8.73;;;;;;;;;;5029196;28;20032;-73
2023/10/08 11:47:55;;;;;;;23.45;8.63;;;;;;;;;;5023599;28;20017;-73
2023/10/08 11:50:26;;;;;;;34.42;9.20;;;;;;;;;;5024783;28;20026;-73
2023/10/08 11:52:51;;;;;;;21.55;8.07;;;;;;;;;;5013699;28;20106;-73
2023/10/08 11:55:19;;;;;;;28.83;9.00;;;;;;;;;;5015307;28;20025;-73
2023/10/08 11:57:48;;;;;;;22.33;8.23;;;;;;;;;;5028929;28;20393;-73
2023/10/08 12:00:20;;;;;;;35.08;9.15;;;;;;;;;;5030767;28;20104;-73
2023/10/08 12:02:48;;;;;;;30.13;9.65;;;;;;;;;;5027282;28;20029;-73
2023/10/08 12:05:19;;;;;;;36.25;10.32;;;;;;;;;;5030502;28;20108;-73
2023/10/08 12:07:48;;;;;;;28.15;9.52;;;;;;;;;;5029093;28;20096;-73
2023/10/08 12:10:22;;;;;;;37.38;10.40;;;;;;;;;;5032324;28;20087;-72
2023/10/08 12:12:54;;;;;;;33.10;10.77;;;;;;;;;;5030175;28;20025;-72
2023/10/08 12:15:19;;;;;;;31.30;10.30;;;;;;;;;;5027987;28;20108;-72
2023/10/08 12:20:34;;;;;;;37.42;10.07;;;;;;;;;;5023644;28;20539;-73
2023/10/08 12:22:59;;;;;;;34.13;9.57;;;;;;;;;;5026457;28;20045;-72
2023/10/08 12:25:24;;;;;;;25.48;10.15;;;;;;;;;;5025202;28;20100;-72
2023/10/08 12:27:49;;;;;;;40.00;10.47;;;;;;;;;;5027460;28;20026;-72
2023/10/08 12:30:15;;;;;;;29.23;8.13;;;;;;;;;;5023322;28;20045;-73
2023/10/08 12:32:42;;;;;;;25.93;9.03;;;;;;;;;;5030447;28;20033;-72
2023/10/08 12:35:12;;;;;;;25.17;8.98;;;;;;;;;;5031474;28;20048;-73
2023/10/08 12:37:44;;;;;;;28.55;9.63;;;;;;;;;;5031635;28;20018;-72
2023/10/08 12:40:22;;;;;;;29.20;9.80;;;;;;;;;;5032487;28;20025;-73
2023/10/08 12:42:48;;;;;;;25.70;10.00;;;;;;;;;;5032210;28;20017;-72
2023/10/08 12:45:13;;;;;;;23.15;7.95;;;;;;;;;;5031563;28;20025;-73
2023/10/08 12:47:38;;;;;;;27.37;9.40;;;;;;;;;;5027399;28;20085;-73
2023/10/08 12:50:07;;;;;;;27.25;9.38;;;;;;;;;;5031703;28;20287;-73
2023/10/08 12:52:34;;;;;;;33.35;9.57;;;;;;;;;;5031723;28;20018;-73
2023/10/08 12:55:03;;;;;;;23.77;8.55;;;;;;;;;;5031644;28;20018;-73
2023/10/08 12:57:32;;;;;;;20.75;8.68;;;;;;;;;;5031746;28;20021;-73
2023/10/08 12:59:59;;;;;;;24.77;8.63;;;;;;;;;;5031010;28;20034;-73
2023/10/08 13:02:28;;;;;;;23.48;9.82;;;;;;;;;;5030717;28;20028;-73
2023/10/08 13:04:54;;;;;;;31.73;8.70;;;;;;;;;;5027935;28;20478;-73
2023/10/08 13:07:21;;;;;;;28.77;10.18;;;;;;;;;;5031628;28;20400;-73
2023/10/08 13:09:46;;;;;;;28.83;8.93;;;;;;;;;;5031471;28;20490;-73
2023/10/08 13:12:12;;;;;;;31.37;9.53;;;;;;;;;;5031081;28;20147;-73
2023/10/08 13:14:37;;;;;;;24.20;9.05;;;;;;;;;;5031589;28;20017;-73
2023/10/08 13:17:03;;;;;;;36.73;8.57;;;;;;;;;;5027408;28;20025;-73
2023/10/08 13:19:30;;;;;;;24.42;8.70;;;;;;;;;;5031396;28;20264;-73
2023/10/08 13:21:55;;;;;;;25.83;8.07;;;;;;;;;;5031403;28;20033;-73
2023/10/08 13:24:21;;;;;;;35.33;9.37;;;;;;;;;;5032113;28;20017;-73
2023/10/08 13:26:47;;;;;;;27.98;8.77;;;;;;;;;;5031363;28;20032;-73
2023/10/08 13:29:13;;;;;;;26.30;8.48;;;;;;;;;;5031106;28;20020;-73
2023/10/08 13:31:39;;;;;;;30.58;9.80;;;;;;;;;;5027327;28;20092;-73
2023/10/08 13:34:08;;;;;;;32.25;8.75;;;;;;;;;;5026161;28;20022;-73
2023/10/08 13:36:33;;;;;;;27.43;8.87;;;;;;;;;;5031512;28;20017;-73
2023/10/08 13:38:58;;;;;;;23.73;9.18;;;;;;;;;;5031346;28;20020;-73
2023/10/08 13:41:29;;;;;;;29.53;9.47;;;;;;;;;;5031190;28;20053;-73
2023/10/08 13:44:04;;;;;;;26.75;9.07;;;;;;;;;;5030227;28;20260;-73
2023/10/08 13:46:31;;;;;;;24.70;8.95;;;;;;;;;;5026892;28;20025;-73
2023/10/08 13:48:57;;;;;;;33.05;9.27;;;;;;;;;;5027054;28;20464;-74
2023/10/08 13:51:25;;;;;;;31.15;10.30;;;;;;;;;;5030865;28;20450;-74
2023/10/08 13:53:53;;;;;;;27.10;9.20;;;;;;;;;;5025496;28;20097;-73
2023/10/08 13:56:26;;;;;;;34.90;10.52;;;;;;;;;;5029834;28;20556;-74
2023/10/08 13:58:56;;;;;;;32.00;10.30;;;;;;;;;;5030284;28;20446;-73
2023/10/08 14:01:21;;;;;;;36.00;10.23;;;;;;;;;;5030374;28;20454;-74
2023/10/08 14:03:53;;;;;;;30.00;9.63;;;;;;;;;;5028132;28;20068;-73
2023/10/08 14:06:19;;;;;;;28.27;9.07;;;;;;;;;;5031884;28;20287;-74
2023/10/08 14:08:51;;;;;;;32.83;9.50;;;;;;;;;;5030267;28;20040;-73
2023/10/08 14:11:16;;;;;;;29.70;9.15;;;;;;;;;;5030638;28;20014;-73
2023/10/08 14:13:42;;;;;;;29.20;9.50;;;;;;;;;;5030015;28;20432;-73
2023/10/08 14:16:10;;;;;;;28.27;8.73;;;;;;;;;;5031318;28;20534;-73
2023/10/08 14:18:40;;;;;;;27.30;9.10;;;;;;;;;;5026057;28;20495;-74
2023/10/08 14:21:09;;;;;;;;;;;;;;;;;;5027515;28;20022;-74
2023/10/08 14:23:38;;;;;;;34.30;8.20;;;;;;;;;;5029220;28;19956;-73
2023/10/08 14:26:06;;;;;;;32.08;10.15;;;;;;;;;;5024930;28;20047;-73
2023/10/08 14:28:42;;;;;;;27.67;10.18;;;;;;;;;;5030167;28;20519;-73
2023/10/08 14:31:07;;;;;;;31.45;9.13;;;;;;;;;;5022190;28;20014;-74
2023/10/08 14:33:41;;;;;;;26.77;10.18;;;;;;;;;;5030224;28;20526;-73
2023/10/08 14:44:19;;;;;;;29.38;9.45;;;;;;;;;;5026845;28;20495;-73
2023/10/08 14:46:44;;;;;;;25.63;7.37;;;;;;;;;;5029750;28;20029;-73
2023/10/08 14:49:10;;;;;;;30.88;8.68;;;;;;;;;;5028514;28;20272;-73
2023/10/08 14:51:36;;;;;;;30.00;9.15;;;;;;;;;;5026671;28;20024;-73
2023/10/08 14:54:01;;;;;;;26.38;9.02;;;;;;;;;;5028361;28;20010;-73
2023/10/08 14:56:30;;;;;;;26.57;9.90;;;;;;;;;;5028379;28;20554;-73
2023/10/08 14:58:55;;;;;;;31.27;9.35;;;;;;;;;;5025036;28;20029;-73
2023/10/08 15:01:22;;;;;;;36.63;9.37;;;;;;;;;;5024241;28;20028;-74
2023/10/08 15:03:48;;;;;;;24.13;8.48;;;;;;;;;;5028368;28;20274;-73
2023/10/08 15:06:13;;;;;;;24.90;8.13;;;;;;;;;;5025475;28;20100;-73
2023/10/08 15:08:38;;;;;;;22.90;8.20;;;;;;;;;;5029410;28;20021;-73
2023/10/08 15:11:06;;;;;;;34.57;8.33;;;;;;;;;;5027761;28;20014;-73
2023/10/08 15:13:33;;;;;;;19.48;7.30;;;;;;;;;;5020930;28;20025;-73
2023/10/08 15:16:00;;;;;;;35.10;10.27;;;;;;;;;;5022931;28;20025;-73
2023/10/08 15:18:31;;;;;;;32.00;9.40;;;;;;;;;;5029740;28;20384;-73
2023/10/08 15:20:57;;;;;;;22.27;7.57;;;;;;;;;;5029279;28;20028;-73
2023/10/08 15:23:25;;;;;;;23.92;7.40;;;;;;;;;;5028320;28;20021;-73
2023/10/08 15:25:50;;;;;;;22.05;7.45;;;;;;;;;;5026763;28;20388;-73
2023/10/08 15:28:15;;;;;;;24.05;7.38;;;;;;;;;;5022573;28;20018;-73
2023/10/08 15:30:41;;;;;;;22.87;8.00;;;;;;;;;;5029054;28;20009;-73
2023/10/08 15:33:07;;;;;;;34.90;10.05;;;;;;;;;;5028277;28;20045;-73
2023/10/08 15:35:33;;;;;;;31.02;8.18;;;;;;;;;;5018608;28;20061;-73
2023/10/08 15:37:58;;;;;;;29.10;8.38;;;;;;;;;;5028525;28;20033;-73
2023/10/08 15:40:23;;;;;;;22.30;8.53;;;;;;;;;;5029004;28;20017;-74
2023/10/08 15:42:53;;;;;;;28.15;8.27;;;;;;;;;;5028724;28;20256;-73
2023/10/08 15:45:19;;;;;;;25.90;9.15;;;;;;;;;;5027520;28;20353;-73
2023/10/08 15:47:44;;;;;;;25.88;8.38;;;;;;;;;;5027279;28;20021;-73
2023/10/08 15:50:10;;;;;;;23.85;8.43;;;;;;;;;;5023842;28;20017;-73
2023/10/08 15:52:35;;;;;;;28.58;8.65;;;;;;;;;;5028082;28;20025;-74
2023/10/08 15:55:00;;;;;;;25.48;8.10;;;;;;;;;;5018222;28;20052;-73
2023/10/08 15:57:26;;;;;;;23.80;8.13;;;;;;;;;;5027944;28;20404;-73
2023/10/08 15:59:51;;;;;;;30.93;8.57;;;;;;;;;;5024727;28;20285;-73
2023/10/08 16:02:18;;;;;;;23.30;9.20;;;;;;;;;;5024390;28;20298;-73